TimeCST,TemperatureF,Dew PointF,Humidity,Sea Level PressureIn,VisibilityMPH,Wind Direction,Wind SpeedMPH,Gust SpeedMPH,PrecipitationIn,Events,Conditions,WindDirDegrees,DateUTC
12:15 AM,30.2,23.0,75,30.08,10.0,SSE,6.9,-,N/A,,Overcast,150,2012-12-06 06:15:00
12:35 AM,30.2,23.0,75,30.06,10.0,SSE,6.9,-,N/A,,Overcast,160,2012-12-06 06:35:00
12:55 AM,30.2,24.8,80,30.05,10.0,SSE,6.9,-,N/A,,Overcast,160,2012-12-06 06:55:00
7:35 AM,33.8,28.4,81,29.90,10.0,South,4.6,-,N/A,,Overcast,190,2012-12-06 13:35:00
7:55 AM,33.8,30.2,87,29.89,7.0,South,6.9,16.1,N/A,Snow,Light Snow,170,2012-12-06 13:55:00
8:15 AM,33.8,30.2,87,29.89,3.0,South,6.9,-,N/A,Snow,Light Snow,190,2012-12-06 14:15:00
8:35 AM,33.8,32.0,93,29.88,1.8,SSW,9.2,-,N/A,Snow,Light Snow,200,2012-12-06 14:35:00
8:55 AM,32.0,32.0,100,29.88,0.8,South,8.1,-,N/A,Snow,Light Snow,190,2012-12-06 14:55:00
9:15 AM,32.0,32.0,100,29.87,1.0,South,8.1,-,0.01,Snow,Light Snow,190,2012-12-06 15:15:00
9:35 AM,32.0,32.0,100,29.86,0.8,South,4.6,-,0.02,Snow,Light Snow,190,2012-12-06 15:35:00
9:55 AM,32.0,32.0,100,29.86,0.8,South,5.8,-,0.03,Snow,Light Snow,180,2012-12-06 15:55:00
10:15 AM,32.0,32.0,100,29.84,3.0,SSW,6.9,-,0.01,Snow,Light Snow,200,2012-12-06 16:15:00
10:55 AM,33.8,32.0,93,29.84,7.0,SSW,6.9,-,0.01,,Overcast,210,2012-12-06 16:55:00
11:15 AM,33.8,32.0,93,29.83,7.0,SSW,5.8,-,N/A,,Overcast,200,2012-12-06 17:15:00
11:35 AM,33.8,32.0,93,29.81,10.0,SSW,5.8,-,N/A,,Overcast,200,2012-12-06 17:35:00
11:55 AM,35.6,32.0,87,29.80,10.0,SSW,8.1,-,N/A,,Overcast,210,2012-12-06 17:55:00
12:15 PM,35.6,32.0,87,29.80,10.0,SSW,5.8,-,N/A,,Overcast,210,2012-12-06 18:15:00
12:35 PM,35.6,32.0,87,29.78,10.0,SSW,6.9,-,N/A,,Overcast,210,2012-12-06 18:35:00
12:55 PM,37.4,32.0,81,29.78,10.0,SW,11.5,-,N/A,,Overcast,220,2012-12-06 18:55:00
1:15 PM,37.4,33.8,87,29.77,10.0,SW,6.9,-,N/A,,Overcast,220,2012-12-06 19:15:00
1:35 PM,37.4,33.8,87,29.76,10.0,SW,4.6,-,N/A,,Overcast,220,2012-12-06 19:35:00
1:55 PM,37.4,33.8,87,29.76,10.0,SW,8.1,-,N/A,,Overcast,230,2012-12-06 19:55:00
2:15 PM,37.4,35.6,93,29.76,10.0,SW,8.1,-,N/A,,Overcast,230,2012-12-06 20:15:00
2:35 PM,37.4,35.6,93,29.77,10.0,WSW,10.4,-,N/A,,Overcast,240,2012-12-06 20:35:00
2:55 PM,37.4,35.6,93,29.78,10.0,WSW,9.2,-,N/A,,Overcast,240,2012-12-06 20:55:00
3:15 PM,37.4,35.6,93,29.78,10.0,WSW,6.9,-,N/A,,Overcast,250,2012-12-06 21:15:00
3:35 PM,37.4,35.6,93,29.79,10.0,WSW,5.8,-,N/A,,Overcast,240,2012-12-06 21:35:00
3:55 PM,37.4,35.6,93,29.79,10.0,SW,3.5,-,N/A,,Overcast,230,2012-12-06 21:55:00
4:15 PM,37.4,35.6,93,29.79,10.0,SW,3.5,-,N/A,,Overcast,230,2012-12-06 22:15:00
4:55 PM,37.4,35.6,93,29.79,10.0,WSW,4.6,-,N/A,,Overcast,240,2012-12-06 22:55:00
5:15 PM,37.4,35.6,93,29.80,10.0,West,4.6,-,N/A,,Overcast,270,2012-12-06 23:15:00
6:15 PM,35.6,32.0,87,29.82,10.0,WNW,15.0,19.6,N/A,,Scattered Clouds,300,2012-12-07 00:15:00
6:35 PM,33.8,32.0,93,29.83,10.0,NW,6.9,-,N/A,,Scattered Clouds,310,2012-12-07 00:35:00
6:55 PM,33.8,32.0,93,29.83,10.0,NW,5.8,-,N/A,,Scattered Clouds,310,2012-12-07 00:55:00
7:15 PM,32.0,30.2,93,29.85,10.0,WNW,4.6,-,N/A,,Clear,300,2012-12-07 01:15:00
7:55 PM,32.0,30.2,93,29.86,10.0,WNW,4.6,-,N/A,,Clear,300,2012-12-07 01:55:00
8:35 PM,32.0,30.2,93,29.85,10.0,Calm,Calm,-,N/A,,Clear,0,2012-12-07 02:35:00
8:55 PM,32.0,28.4,87,29.86,10.0,Calm,Calm,-,N/A,,Clear,0,2012-12-07 02:55:00
9:15 PM,32.0,28.4,87,29.86,10.0,NW,3.5,-,N/A,,Clear,310,2012-12-07 03:15:00
9:35 PM,32.0,28.4,87,29.87,10.0,NW,4.6,-,N/A,,Clear,310,2012-12-07 03:35:00
9:55 PM,32.0,28.4,87,29.87,10.0,WNW,5.8,-,N/A,,Clear,300,2012-12-07 03:55:00
10:15 PM,32.0,28.4,87,29.88,10.0,NW,5.8,-,N/A,,Clear,310,2012-12-07 04:15:00
10:35 PM,32.0,28.4,87,29.88,10.0,NW,4.6,-,N/A,,Clear,310,2012-12-07 04:35:00
10:55 PM,32.0,28.4,87,29.87,10.0,NW,4.6,-,N/A,,Clear,310,2012-12-07 04:55:00
11:15 PM,32.0,28.4,87,29.88,10.0,NW,3.5,-,N/A,,Clear,310,2012-12-07 05:15:00
11:35 PM,30.2,26.6,86,29.88,10.0,NW,3.5,-,N/A,,Clear,310,2012-12-07 05:35:00
11:55 PM,30.2,26.6,86,29.88,10.0,Calm,Calm,-,N/A,,Clear,0,2012-12-07 05:55:00